sensor_id;sensor_type;location;lat;lon;timestamp;P1;durP1;ratioP1;P2;durP2;ratioP2
43646;SDS011;56152;49.996;18.980;2023-07-16T00:07:50;22.45;;;9.07;;
43646;SDS011;56152;49.996;18.980;2023-07-16T00:18:26;17.25;;;9.55;;
43646;SDS011;56152;49.996;18.980;2023-07-16T00:23:32;20.63;;;8.93;;
43646;SDS011;56152;49.996;18.980;2023-07-16T00:28:34;12.68;;;9.25;;
43646;SDS011;56152;49.996;18.980;2023-07-16T00:33:47;16.65;;;10.07;;
43646;SDS011;56152;49.996;18.980;2023-07-16T00:38:50;12.35;;;9.07;;
43646;SDS011;56152;49.996;18.980;2023-07-16T00:43:59;12.65;;;9.20;;
43646;SDS011;56152;49.996;18.980;2023-07-16T00:49:01;17.85;;;9.82;;
43646;SDS011;56152;49.996;18.980;2023-07-16T00:54:09;17.73;;;10.13;;
43646;SDS011;56152;49.996;18.980;2023-07-16T00:59:11;18.00;;;11.77;;
43646;SDS011;56152;49.996;18.980;2023-07-16T01:04:15;18.35;;;12.07;;
43646;SDS011;56152;49.996;18.980;2023-07-16T01:09:20;17.60;;;11.82;;
43646;SDS011;56152;49.996;18.980;2023-07-16T01:14:36;17.25;;;10.13;;
43646;SDS011;56152;49.996;18.980;2023-07-16T01:19:39;19.92;;;10.38;;
43646;SDS011;56152;49.996;18.980;2023-07-16T01:24:53;18.10;;;10.93;;
43646;SDS011;56152;49.996;18.980;2023-07-16T01:30:05;16.77;;;11.75;;
43646;SDS011;56152;49.996;18.980;2023-07-16T01:35:12;19.02;;;12.18;;
43646;SDS011;56152;49.996;18.980;2023-07-16T01:40:25;19.98;;;12.10;;
43646;SDS011;56152;49.996;18.980;2023-07-16T01:45:28;19.52;;;11.20;;
43646;SDS011;56152;49.996;18.980;2023-07-16T01:50:32;29.92;;;15.13;;
43646;SDS011;56152;49.996;18.980;2023-07-16T01:55:34;18.38;;;11.73;;
43646;SDS011;56152;49.996;18.980;2023-07-16T02:00:45;18.25;;;10.45;;
43646;SDS011;56152;49.996;18.980;2023-07-16T02:05:48;15.35;;;10.38;;
43646;SDS011;56152;49.996;18.980;2023-07-16T02:10:53;19.73;;;12.95;;
43646;SDS011;56152;49.996;18.980;2023-07-16T02:16:00;12.57;;;10.48;;
43646;SDS011;56152;49.996;18.980;2023-07-16T02:32:18;20.02;;;12.18;;
43646;SDS011;56152;49.996;18.980;2023-07-16T02:37:31;16.60;;;11.13;;
43646;SDS011;56152;49.996;18.980;2023-07-16T02:42:36;15.90;;;10.02;;
43646;SDS011;56152;49.996;18.980;2023-07-16T02:47:40;17.77;;;12.60;;
43646;SDS011;56152;49.996;18.980;2023-07-16T02:52:42;20.38;;;12.27;;
43646;SDS011;56152;49.996;18.980;2023-07-16T03:03:28;16.50;;;11.02;;
43646;SDS011;56152;49.996;18.980;2023-07-16T03:08:30;17.42;;;10.20;;
43646;SDS011;56152;49.996;18.980;2023-07-16T03:13:32;15.63;;;10.35;;
43646;SDS011;56152;49.996;18.980;2023-07-16T03:18:41;12.68;;;8.88;;
43646;SDS011;56152;49.996;18.980;2023-07-16T03:29:09;11.10;;;9.05;;
43646;SDS011;56152;49.996;18.980;2023-07-16T03:34:22;17.52;;;9.80;;
43646;SDS011;56152;49.996;18.980;2023-07-16T03:39:24;17.42;;;10.77;;
43646;SDS011;56152;49.996;18.980;2023-07-16T03:44:28;13.18;;;10.00;;
43646;SDS011;56152;49.996;18.980;2023-07-16T03:49:48;18.23;;;11.40;;
43646;SDS011;56152;49.996;18.980;2023-07-16T03:54:52;13.68;;;10.20;;
43646;SDS011;56152;49.996;18.980;2023-07-16T04:05:22;12.63;;;9.30;;
43646;SDS011;56152;49.996;18.980;2023-07-16T04:10:39;10.55;;;8.88;;
43646;SDS011;56152;49.996;18.980;2023-07-16T04:15:41;11.43;;;8.65;;
43646;SDS011;56152;49.996;18.980;2023-07-16T04:20:47;11.75;;;8.45;;
43646;SDS011;56152;49.996;18.980;2023-07-16T04:31:11;11.35;;;8.25;;
43646;SDS011;56152;49.996;18.980;2023-07-16T04:36:23;14.32;;;8.45;;
43646;SDS011;56152;49.996;18.980;2023-07-16T04:41:25;10.80;;;7.68;;
43646;SDS011;56152;49.996;18.980;2023-07-16T04:46:30;11.60;;;7.70;;
43646;SDS011;56152;49.996;18.980;2023-07-16T04:51:35;12.93;;;8.00;;
43646;SDS011;56152;49.996;18.980;2023-07-16T04:56:49;12.05;;;8.00;;
43646;SDS011;56152;49.996;18.980;2023-07-16T05:01:53;15.15;;;8.23;;
43646;SDS011;56152;49.996;18.980;2023-07-16T05:06:57;12.90;;;7.30;;
43646;SDS011;56152;49.996;18.980;2023-07-16T05:12:00;10.90;;;6.97;;
43646;SDS011;56152;49.996;18.980;2023-07-16T05:22:31;11.27;;;6.30;;
43646;SDS011;56152;49.996;18.980;2023-07-16T05:27:33;8.18;;;5.68;;
43646;SDS011;56152;49.996;18.980;2023-07-16T05:38:05;8.80;;;5.93;;
43646;SDS011;56152;49.996;18.980;2023-07-16T05:43:10;8.20;;;5.38;;
43646;SDS011;56152;49.996;18.980;2023-07-16T05:54:01;9.65;;;5.38;;
43646;SDS011;56152;49.996;18.980;2023-07-16T05:59:04;7.00;;;4.78;;
43646;SDS011;56152;49.996;18.980;2023-07-16T06:04:05;7.07;;;5.03;;
43646;SDS011;56152;49.996;18.980;2023-07-16T06:09:14;8.35;;;4.50;;
43646;SDS011;56152;49.996;18.980;2023-07-16T06:14:16;7.45;;;3.97;;
43646;SDS011;56152;49.996;18.980;2023-07-16T06:30:34;9.77;;;3.90;;
43646;SDS011;56152;49.996;18.980;2023-07-16T06:40:54;6.75;;;4.05;;
43646;SDS011;56152;49.996;18.980;2023-07-16T06:46:04;4.85;;;3.60;;
43646;SDS011;56152;49.996;18.980;2023-07-16T06:51:07;10.00;;;4.32;;
43646;SDS011;56152;49.996;18.980;2023-07-16T07:01:16;4.78;;;3.60;;
43646;SDS011;56152;49.996;18.980;2023-07-16T07:11:25;4.05;;;3.28;;
43646;SDS011;56152;49.996;18.980;2023-07-16T07:16:29;7.47;;;3.50;;
43646;SDS011;56152;49.996;18.980;2023-07-16T07:21:31;5.68;;;3.53;;
43646;SDS011;56152;49.996;18.980;2023-07-16T07:26:33;5.82;;;4.00;;
43646;SDS011;56152;49.996;18.980;2023-07-16T07:31:36;6.47;;;3.60;;
43646;SDS011;56152;49.996;18.980;2023-07-16T07:36:38;7.07;;;3.70;;
43646;SDS011;56152;49.996;18.980;2023-07-16T07:41:40;5.60;;;3.35;;
43646;SDS011;56152;49.996;18.980;2023-07-16T07:51:50;3.58;;;3.20;;
43646;SDS011;56152;49.996;18.980;2023-07-16T07:57:03;4.35;;;3.10;;
43646;SDS011;56152;49.996;18.980;2023-07-16T08:02:08;6.80;;;2.92;;
43646;SDS011;56152;49.996;18.980;2023-07-16T08:07:27;8.50;;;3.65;;
43646;SDS011;56152;49.996;18.980;2023-07-16T08:12:29;7.07;;;3.50;;
43646;SDS011;56152;49.996;18.980;2023-07-16T08:17:39;5.88;;;3.72;;
43646;SDS011;56152;49.996;18.980;2023-07-16T08:22:41;4.85;;;3.30;;
43646;SDS011;56152;49.996;18.980;2023-07-16T08:27:50;8.50;;;3.20;;
43646;SDS011;56152;49.996;18.980;2023-07-16T08:32:55;7.30;;;3.90;;
43646;SDS011;56152;49.996;18.980;2023-07-16T08:38:09;6.43;;;3.85;;
43646;SDS011;56152;49.996;18.980;2023-07-16T08:43:11;8.63;;;4.10;;
43646;SDS011;56152;49.996;18.980;2023-07-16T08:48:17;6.65;;;4.20;;
43646;SDS011;56152;49.996;18.980;2023-07-16T08:53:22;6.47;;;4.70;;
43646;SDS011;56152;49.996;18.980;2023-07-16T08:58:24;8.10;;;4.95;;
43646;SDS011;56152;49.996;18.980;2023-07-16T09:03:28;7.72;;;5.15;;
43646;SDS011;56152;49.996;18.980;2023-07-16T09:08:42;6.45;;;4.72;;
43646;SDS011;56152;49.996;18.980;2023-07-16T09:13:45;13.60;;;5.18;;
43646;SDS011;56152;49.996;18.980;2023-07-16T09:18:54;5.53;;;4.88;;
43646;SDS011;56152;49.996;18.980;2023-07-16T09:23:56;8.48;;;4.88;;
43646;SDS011;56152;49.996;18.980;2023-07-16T09:28:59;6.57;;;4.90;;
43646;SDS011;56152;49.996;18.980;2023-07-16T09:34:08;9.55;;;5.65;;
43646;SDS011;56152;49.996;18.980;2023-07-16T09:39:10;5.82;;;4.82;;
43646;SDS011;56152;49.996;18.980;2023-07-16T09:44:16;8.80;;;5.40;;
43646;SDS011;56152;49.996;18.980;2023-07-16T09:49:21;6.13;;;5.53;;
43646;SDS011;56152;49.996;18.980;2023-07-16T09:54:24;7.32;;;5.53;;
43646;SDS011;56152;49.996;18.980;2023-07-16T09:59:27;8.30;;;6.35;;
43646;SDS011;56152;49.996;18.980;2023-07-16T10:04:39;9.05;;;5.88;;
43646;SDS011;56152;49.996;18.980;2023-07-16T10:09:50;7.40;;;5.85;;
43646;SDS011;56152;49.996;18.980;2023-07-16T10:14:54;9.18;;;5.95;;
43646;SDS011;56152;49.996;18.980;2023-07-16T10:20:10;8.13;;;6.55;;
43646;SDS011;56152;49.996;18.980;2023-07-16T10:30:37;11.23;;;7.65;;
43646;SDS011;56152;49.996;18.980;2023-07-16T10:35:42;7.75;;;6.95;;
43646;SDS011;56152;49.996;18.980;2023-07-16T10:40:46;12.63;;;7.70;;
43646;SDS011;56152;49.996;18.980;2023-07-16T10:45:55;11.82;;;7.93;;
43646;SDS011;56152;49.996;18.980;2023-07-16T10:50:59;8.00;;;7.20;;
43646;SDS011;56152;49.996;18.980;2023-07-16T11:12:22;9.93;;;8.25;;
43646;SDS011;56152;49.996;18.980;2023-07-16T11:17:24;8.80;;;7.90;;
43646;SDS011;56152;49.996;18.980;2023-07-16T11:22:28;10.07;;;7.65;;
43646;SDS011;56152;49.996;18.980;2023-07-16T11:27:48;7.78;;;6.97;;
43646;SDS011;56152;49.996;18.980;2023-07-16T11:32:57;8.68;;;7.78;;
43646;SDS011;56152;49.996;18.980;2023-07-16T11:38:01;8.82;;;7.32;;
43646;SDS011;56152;49.996;18.980;2023-07-16T11:43:09;7.95;;;7.15;;
43646;SDS011;56152;49.996;18.980;2023-07-16T11:48:12;10.15;;;7.60;;
43646;SDS011;56152;49.996;18.980;2023-07-16T11:53:28;9.07;;;7.60;;
43646;SDS011;56152;49.996;18.980;2023-07-16T11:58:30;8.82;;;7.82;;
43646;SDS011;56152;49.996;18.980;2023-07-16T12:03:38;8.85;;;6.65;;
43646;SDS011;56152;49.996;18.980;2023-07-16T12:08:42;8.05;;;6.63;;
43646;SDS011;56152;49.996;18.980;2023-07-16T12:13:43;9.52;;;6.65;;
43646;SDS011;56152;49.996;18.980;2023-07-16T12:24:19;11.45;;;6.47;;
43646;SDS011;56152;49.996;18.980;2023-07-16T12:29:23;11.40;;;6.83;;
43646;SDS011;56152;49.996;18.980;2023-07-16T12:34:33;8.77;;;6.60;;
43646;SDS011;56152;49.996;18.980;2023-07-16T12:39:36;9.23;;;6.90;;
43646;SDS011;56152;49.996;18.980;2023-07-16T12:44:49;9.05;;;6.68;;
43646;SDS011;56152;49.996;18.980;2023-07-16T12:49:51;7.22;;;6.53;;
43646;SDS011;56152;49.996;18.980;2023-07-16T12:54:56;9.27;;;6.55;;
43646;SDS011;56152;49.996;18.980;2023-07-16T13:00:00;9.83;;;6.60;;
43646;SDS011;56152;49.996;18.980;2023-07-16T13:10:17;9.52;;;6.75;;
43646;SDS011;56152;49.996;18.980;2023-07-16T13:15:19;7.68;;;6.97;;
43646;SDS011;56152;49.996;18.980;2023-07-16T13:20:26;8.27;;;7.53;;
43646;SDS011;56152;49.996;18.980;2023-07-16T13:25:41;8.57;;;7.47;;
43646;SDS011;56152;49.996;18.980;2023-07-16T13:30:45;10.90;;;7.00;;
43646;SDS011;56152;49.996;18.980;2023-07-16T13:35:51;9.45;;;7.45;;
43646;SDS011;56152;49.996;18.980;2023-07-16T13:41:01;10.30;;;8.00;;
43646;SDS011;56152;49.996;18.980;2023-07-16T13:46:03;8.68;;;7.63;;
43646;SDS011;56152;49.996;18.980;2023-07-16T13:51:05;9.82;;;6.88;;
43646;SDS011;56152;49.996;18.980;2023-07-16T13:56:42;8.75;;;7.72;;
43646;SDS011;56152;49.996;18.980;2023-07-16T14:01:58;8.38;;;7.10;;
43646;SDS011;56152;49.996;18.980;2023-07-16T14:12:44;8.55;;;7.70;;
43646;SDS011;56152;49.996;18.980;2023-07-16T14:18:19;8.25;;;7.50;;
43646;SDS011;56152;49.996;18.980;2023-07-16T14:23:38;8.07;;;6.70;;
43646;SDS011;56152;49.996;18.980;2023-07-16T14:28:50;9.33;;;8.30;;
43646;SDS011;56152;49.996;18.980;2023-07-16T14:33:53;9.25;;;6.90;;
43646;SDS011;56152;49.996;18.980;2023-07-16T14:38:57;9.45;;;7.35;;
43646;SDS011;56152;49.996;18.980;2023-07-16T14:44:06;8.18;;;6.85;;
43646;SDS011;56152;49.996;18.980;2023-07-16T14:49:23;9.65;;;7.40;;
43646;SDS011;56152;49.996;18.980;2023-07-16T14:54:30;7.68;;;6.75;;
43646;SDS011;56152;49.996;18.980;2023-07-16T14:59:39;10.00;;;7.82;;
43646;SDS011;56152;49.996;18.980;2023-07-16T15:04:45;7.67;;;6.83;;
43646;SDS011;56152;49.996;18.980;2023-07-16T15:09:55;11.98;;;8.40;;
43646;SDS011;56152;49.996;18.980;2023-07-16T15:14:58;11.85;;;8.93;;
43646;SDS011;56152;49.996;18.980;2023-07-16T15:20:01;9.25;;;8.13;;
43646;SDS011;56152;49.996;18.980;2023-07-16T15:25:04;9.32;;;8.38;;
43646;SDS011;56152;49.996;18.980;2023-07-16T15:30:11;11.20;;;8.65;;
43646;SDS011;56152;49.996;18.980;2023-07-16T15:35:15;9.75;;;8.85;;
43646;SDS011;56152;49.996;18.980;2023-07-16T15:40:33;12.13;;;9.13;;
43646;SDS011;56152;49.996;18.980;2023-07-16T15:45:38;9.30;;;8.40;;
43646;SDS011;56152;49.996;18.980;2023-07-16T15:50:58;13.27;;;8.68;;
43646;SDS011;56152;49.996;18.980;2023-07-16T15:55:59;8.85;;;8.05;;
43646;SDS011;56152;49.996;18.980;2023-07-16T16:01:04;10.02;;;9.02;;
43646;SDS011;56152;49.996;18.980;2023-07-16T16:06:16;9.43;;;8.48;;
43646;SDS011;56152;49.996;18.980;2023-07-16T16:11:27;11.38;;;9.40;;
43646;SDS011;56152;49.996;18.980;2023-07-16T16:16:56;10.13;;;8.67;;
43646;SDS011;56152;49.996;18.980;2023-07-16T16:22:25;8.63;;;7.70;;
43646;SDS011;56152;49.996;18.980;2023-07-16T16:27:38;15.18;;;8.50;;
43646;SDS011;56152;49.996;18.980;2023-07-16T16:32:45;10.50;;;8.23;;
43646;SDS011;56152;49.996;18.980;2023-07-16T16:37:50;8.30;;;7.40;;
43646;SDS011;56152;49.996;18.980;2023-07-16T16:42:55;13.18;;;8.52;;
43646;SDS011;56152;49.996;18.980;2023-07-16T16:54:11;12.63;;;9.63;;
43646;SDS011;56152;49.996;18.980;2023-07-16T16:59:15;13.13;;;10.13;;
43646;SDS011;56152;49.996;18.980;2023-07-16T17:04:20;10.80;;;9.65;;
43646;SDS011;56152;49.996;18.980;2023-07-16T17:09:30;10.98;;;9.88;;
43646;SDS011;56152;49.996;18.980;2023-07-16T17:14:44;11.52;;;10.43;;
43646;SDS011;56152;49.996;18.980;2023-07-16T17:19:46;11.30;;;10.13;;
43646;SDS011;56152;49.996;18.980;2023-07-16T17:24:57;15.98;;;10.38;;
43646;SDS011;56152;49.996;18.980;2023-07-16T17:30:00;11.85;;;10.18;;
43646;SDS011;56152;49.996;18.980;2023-07-16T17:35:03;10.45;;;9.48;;
43646;SDS011;56152;49.996;18.980;2023-07-16T17:40:08;10.98;;;9.90;;
43646;SDS011;56152;49.996;18.980;2023-07-16T17:45:12;13.55;;;10.30;;
43646;SDS011;56152;49.996;18.980;2023-07-16T17:55:49;11.75;;;10.65;;
43646;SDS011;56152;49.996;18.980;2023-07-16T18:00:55;14.65;;;11.32;;
43646;SDS011;56152;49.996;18.980;2023-07-16T18:05:58;12.00;;;10.80;;
43646;SDS011;56152;49.996;18.980;2023-07-16T18:11:03;12.43;;;11.13;;
43646;SDS011;56152;49.996;18.980;2023-07-16T18:16:05;12.27;;;11.00;;
43646;SDS011;56152;49.996;18.980;2023-07-16T18:21:15;14.82;;;10.63;;
43646;SDS011;56152;49.996;18.980;2023-07-16T18:26:30;11.25;;;10.05;;
43646;SDS011;56152;49.996;18.980;2023-07-16T18:31:34;12.35;;;11.15;;
43646;SDS011;56152;49.996;18.980;2023-07-16T18:36:40;14.00;;;11.95;;
43646;SDS011;56152;49.996;18.980;2023-07-16T18:41:44;18.92;;;12.07;;
43646;SDS011;56152;49.996;18.980;2023-07-16T18:46:46;16.45;;;12.32;;
43646;SDS011;56152;49.996;18.980;2023-07-16T18:51:59;12.75;;;10.77;;
43646;SDS011;56152;49.996;18.980;2023-07-16T18:57:07;17.08;;;12.82;;
43646;SDS011;56152;49.996;18.980;2023-07-16T19:02:17;12.20;;;11.02;;
43646;SDS011;56152;49.996;18.980;2023-07-16T19:07:28;11.40;;;10.30;;
43646;SDS011;56152;49.996;18.980;2023-07-16T19:12:34;15.60;;;11.73;;
43646;SDS011;56152;49.996;18.980;2023-07-16T19:17:53;14.20;;;12.30;;
43646;SDS011;56152;49.996;18.980;2023-07-16T19:23:05;14.85;;;12.48;;
43646;SDS011;56152;49.996;18.980;2023-07-16T19:28:10;16.65;;;13.10;;
43646;SDS011;56152;49.996;18.980;2023-07-16T19:33:20;14.20;;;12.32;;
43646;SDS011;56152;49.996;18.980;2023-07-16T19:38:25;13.27;;;11.70;;
43646;SDS011;56152;49.996;18.980;2023-07-16T19:43:41;14.50;;;12.77;;
43646;SDS011;56152;49.996;18.980;2023-07-16T19:48:44;16.63;;;12.27;;
43646;SDS011;56152;49.996;18.980;2023-07-16T19:53:50;12.95;;;11.65;;
43646;SDS011;56152;49.996;18.980;2023-07-16T19:59:00;14.52;;;12.98;;
43646;SDS011;56152;49.996;18.980;2023-07-16T20:04:26;15.02;;;13.43;;
43646;SDS011;56152;49.996;18.980;2023-07-16T20:09:29;13.68;;;12.23;;
43646;SDS011;56152;49.996;18.980;2023-07-16T20:14:40;13.18;;;11.02;;
43646;SDS011;56152;49.996;18.980;2023-07-16T20:19:45;14.65;;;12.63;;
43646;SDS011;56152;49.996;18.980;2023-07-16T20:24:51;13.63;;;12.10;;
43646;SDS011;56152;49.996;18.980;2023-07-16T20:29:55;13.73;;;12.02;;
43646;SDS011;56152;49.996;18.980;2023-07-16T20:35:14;15.07;;;13.40;;
43646;SDS011;56152;49.996;18.980;2023-07-16T20:40:16;17.45;;;13.20;;
43646;SDS011;56152;49.996;18.980;2023-07-16T20:50:49;14.15;;;12.75;;
43646;SDS011;56152;49.996;18.980;2023-07-16T20:55:54;13.30;;;12.10;;
43646;SDS011;56152;49.996;18.980;2023-07-16T21:00:58;14.30;;;12.65;;
43646;SDS011;56152;49.996;18.980;2023-07-16T21:06:02;13.05;;;11.52;;
43646;SDS011;56152;49.996;18.980;2023-07-16T21:11:04;14.70;;;13.25;;
43646;SDS011;56152;49.996;18.980;2023-07-16T21:21:56;14.23;;;12.82;;
43646;SDS011;56152;49.996;18.980;2023-07-16T21:26:59;14.25;;;11.95;;
43646;SDS011;56152;49.996;18.980;2023-07-16T21:32:13;15.88;;;14.25;;
43646;SDS011;56152;49.996;18.980;2023-07-16T21:37:18;17.13;;;14.02;;
43646;SDS011;56152;49.996;18.980;2023-07-16T21:53:25;16.48;;;13.07;;
43646;SDS011;56152;49.996;18.980;2023-07-16T21:58:27;16.02;;;11.68;;
43646;SDS011;56152;49.996;18.980;2023-07-16T22:03:31;17.30;;;13.80;;
43646;SDS011;56152;49.996;18.980;2023-07-16T22:08:37;13.68;;;12.38;;
43646;SDS011;56152;49.996;18.980;2023-07-16T22:13:40;16.00;;;14.50;;
43646;SDS011;56152;49.996;18.980;2023-07-16T22:18:43;17.58;;;15.50;;
43646;SDS011;56152;49.996;18.980;2023-07-16T22:29:19;20.27;;;17.80;;
43646;SDS011;56152;49.996;18.980;2023-07-16T22:34:21;19.58;;;15.35;;
43646;SDS011;56152;49.996;18.980;2023-07-16T22:39:33;22.17;;;18.02;;
43646;SDS011;56152;49.996;18.980;2023-07-16T22:44:36;23.27;;;16.70;;
43646;SDS011;56152;49.996;18.980;2023-07-16T22:55:03;19.08;;;17.17;;
43646;SDS011;56152;49.996;18.980;2023-07-16T23:05:27;19.73;;;17.63;;
43646;SDS011;56152;49.996;18.980;2023-07-16T23:16:29;22.35;;;18.08;;
43646;SDS011;56152;49.996;18.980;2023-07-16T23:21:41;21.88;;;18.83;;
43646;SDS011;56152;49.996;18.980;2023-07-16T23:26:54;20.45;;;17.55;;
43646;SDS011;56152;49.996;18.980;2023-07-16T23:32:00;20.10;;;16.92;;
43646;SDS011;56152;49.996;18.980;2023-07-16T23:37:02;19.83;;;17.90;;
43646;SDS011;56152;49.996;18.980;2023-07-16T23:42:06;18.90;;;17.00;;
43646;SDS011;56152;49.996;18.980;2023-07-16T23:47:27;21.77;;;19.58;;
43646;SDS011;56152;49.996;18.980;2023-07-16T23:52:29;20.75;;;18.73;;
43646;SDS011;56152;49.996;18.980;2023-07-16T23:57:39;21.30;;;17.73;;
